createdAt,value
2023-02-27T00:02:39.278Z,6.57
2023-02-27T00:06:08.689Z,6.57
2023-02-27T00:09:38.106Z,6.59
2023-02-27T00:13:07.667Z,6.58
2023-02-27T00:16:36.976Z,6.58
2023-02-27T00:20:05.668Z,6.56
2023-02-27T00:23:25.630Z,6.54
2023-02-27T00:26:55.118Z,6.50
2023-02-27T00:30:05.929Z,6.48
2023-02-27T00:33:34.697Z,6.47
2023-02-27T00:36:46.102Z,6.47
2023-02-27T00:40:15.388Z,6.49
2023-02-27T00:43:44.602Z,6.54
2023-02-27T00:47:13.371Z,6.57
2023-02-27T00:50:42.237Z,6.51
2023-02-27T00:54:11.320Z,6.49
2023-02-27T00:57:39.034Z,6.49
2023-02-27T01:01:01.196Z,6.54
2023-02-27T01:04:30.054Z,6.57
2023-02-27T01:07:59.458Z,6.64
2023-02-27T01:11:22.014Z,6.66
2023-02-27T01:14:50.851Z,6.66
2023-02-27T01:18:20.034Z,6.65
2023-02-27T01:21:38.172Z,6.66
2023-02-27T01:25:00.236Z,6.69
2023-02-27T01:28:29.437Z,6.70
2023-02-27T01:31:57.195Z,6.70
2023-02-27T01:35:26.311Z,6.70
2023-02-27T01:38:55.539Z,6.68
2023-02-27T01:42:24.635Z,6.65
2023-02-27T01:46:18.014Z,6.59
2023-02-27T01:49:49.534Z,6.51
2023-02-27T01:53:18.610Z,6.45
2023-02-27T01:56:47.757Z,6.41
2023-02-27T02:00:07.364Z,6.32
2023-02-27T02:03:39.611Z,6.23
2023-02-27T02:07:08.253Z,6.16
2023-02-27T02:10:30.493Z,6.10
2023-02-27T02:13:59.672Z,6.05
2023-02-27T02:17:27.309Z,5.98
2023-02-27T02:20:46.979Z,5.93
2023-02-27T02:24:13.630Z,5.88
2023-02-27T02:27:42.694Z,5.86
2023-02-27T02:31:10.117Z,5.86
2023-02-27T02:34:52.136Z,5.87
2023-02-27T02:38:19.545Z,5.88
2023-02-27T02:42:07.133Z,5.89
2023-02-27T02:45:44.878Z,5.88
2023-02-27T02:49:14.207Z,5.83
2023-02-27T02:52:43.653Z,5.78
2023-02-27T02:56:12.969Z,5.72
2023-02-27T02:59:44.213Z,5.67
2023-02-27T03:03:22.370Z,5.66
2023-02-27T03:06:52.183Z,5.69
2023-02-27T03:10:27.120Z,5.70
2023-02-27T03:13:56.439Z,5.65
2023-02-27T03:17:20.111Z,5.66
2023-02-27T03:20:49.208Z,5.67
2023-02-27T03:24:26.590Z,5.66
2023-02-27T03:27:48.937Z,5.64
2023-02-27T03:31:23.204Z,5.64
2023-02-27T03:34:46.632Z,5.63
2023-02-27T03:38:20.567Z,5.63
2023-02-27T03:41:57.789Z,5.64
2023-02-27T03:45:44.518Z,5.63
2023-02-27T03:49:13.699Z,5.60
2023-02-27T03:52:35.740Z,5.61
2023-02-27T03:56:04.670Z,5.62
2023-02-27T03:59:33.820Z,5.61
2023-02-27T04:02:51.732Z,5.58
2023-02-27T04:06:19.386Z,5.55
2023-02-27T04:10:03.693Z,5.54
2023-02-27T04:13:40.946Z,5.52
2023-02-27T04:17:15.966Z,5.51
2023-02-27T04:21:02.686Z,5.49
2023-02-27T04:24:35.216Z,5.50
2023-02-27T04:28:13.256Z,5.49
2023-02-27T04:31:45.046Z,5.48
2023-02-27T04:35:20.738Z,5.45
2023-02-27T04:38:56.101Z,5.45
2023-02-27T04:42:30.278Z,5.48
2023-02-27T04:45:59.396Z,5.51
2023-02-27T04:49:30.636Z,5.50
2023-02-27T04:53:02.315Z,5.51
2023-02-27T04:56:33.647Z,5.51
2023-02-27T05:00:02.839Z,5.53
2023-02-27T05:03:34.261Z,5.54
2023-02-27T05:06:58.708Z,5.54
2023-02-27T05:10:33.637Z,5.56
2023-02-27T05:14:09.137Z,5.60
2023-02-27T05:17:30.676Z,5.57
2023-02-27T05:20:59.996Z,5.55
2023-02-27T05:24:43.337Z,5.54
2023-02-27T05:28:27.029Z,5.55
2023-02-27T05:32:11.116Z,5.56
2023-02-27T05:35:40.022Z,5.60
2023-02-27T05:39:09.526Z,5.63
2023-02-27T05:42:38.652Z,5.64
2023-02-27T05:46:07.805Z,5.65
2023-02-27T05:49:31.043Z,5.63
2023-02-27T05:53:00.389Z,5.61
2023-02-27T05:56:29.339Z,5.57
2023-02-27T05:59:55.893Z,5.58
2023-02-27T06:03:25.146Z,5.55
2023-02-27T06:06:44.749Z,5.53
2023-02-27T06:10:13.628Z,5.52
2023-02-27T06:13:24.892Z,5.52
2023-02-27T06:16:39.421Z,5.48
2023-02-27T06:20:08.318Z,5.45
2023-02-27T06:23:17.430Z,5.39
2023-02-27T06:26:46.553Z,5.38
2023-02-27T06:29:55.410Z,5.35
2023-02-27T06:33:11.226Z,5.34
2023-02-27T06:36:40.256Z,5.35
2023-02-27T06:40:09.710Z,5.35
2023-02-27T06:43:29.001Z,5.32
2023-02-27T06:46:58.451Z,5.31
2023-02-27T06:49:29.710Z,5.30
2023-02-27T06:52:48.784Z,5.27
2023-02-27T06:56:18.102Z,5.28
2023-02-27T06:59:46.918Z,5.29
2023-02-27T07:02:46.227Z,5.30
2023-02-27T07:05:55.663Z,5.30
2023-02-27T07:09:24.837Z,5.30
2023-02-27T07:12:53.973Z,5.29
2023-02-27T07:16:23.028Z,5.25
2023-02-27T07:19:52.407Z,5.21
2023-02-27T07:23:21.395Z,5.16
2023-02-27T07:26:50.305Z,5.12
2023-02-27T07:30:19.699Z,5.09
2023-02-27T07:33:49.394Z,5.08
2023-02-27T07:37:18.770Z,5.08
2023-02-27T07:40:48.461Z,5.07
2023-02-27T07:44:17.782Z,5.05
2023-02-27T07:47:46.920Z,5.05
2023-02-27T07:51:07.679Z,5.04
2023-02-27T07:54:36.605Z,5.02
2023-02-27T07:58:05.903Z,5.03
2023-02-27T08:01:38.184Z,4.99
2023-02-27T08:05:07.659Z,4.97
2023-02-27T08:08:31.353Z,4.96
2023-02-27T08:12:00.743Z,4.92
2023-02-27T08:15:30.353Z,4.88
2023-02-27T08:18:59.677Z,4.85
2023-02-27T08:22:22.650Z,4.83
2023-02-27T08:25:56.094Z,4.78
2023-02-27T08:29:17.898Z,4.76
2023-02-27T08:32:39.701Z,4.73
2023-02-27T08:36:11.149Z,4.73
2023-02-27T08:39:39.958Z,4.74
2023-02-27T08:43:08.944Z,4.75
2023-02-27T08:46:38.300Z,4.77
2023-02-27T08:50:00.687Z,4.78
2023-02-27T08:53:29.918Z,4.76
2023-02-27T08:56:58.978Z,4.75
2023-02-27T09:00:28.099Z,4.72
2023-02-27T09:03:41.420Z,4.68
2023-02-27T09:07:11.206Z,4.64
2023-02-27T09:10:40.717Z,4.60
2023-02-27T09:14:03.312Z,4.55
2023-02-27T09:17:32.709Z,4.51
2023-02-27T09:21:02.366Z,4.47
2023-02-27T09:24:31.563Z,4.43
2023-02-27T09:27:50.923Z,4.41
2023-02-27T09:31:05.430Z,4.39
2023-02-27T09:34:34.597Z,4.38
2023-02-27T09:38:02.898Z,4.37
2023-02-27T09:41:32.130Z,4.36
2023-02-27T09:45:13.430Z,4.34
2023-02-27T09:48:42.985Z,4.32
2023-02-27T09:52:12.397Z,4.30
2023-02-27T09:55:41.636Z,4.30
2023-02-27T09:59:16.884Z,4.31
2023-02-27T10:03:05.007Z,4.31
2023-02-27T10:06:46.434Z,4.32
2023-02-27T10:10:24.118Z,4.32
2023-02-27T10:13:53.589Z,4.32
2023-02-27T10:17:06.386Z,4.33
2023-02-27T10:20:29.289Z,4.33
2023-02-27T10:23:58.554Z,4.33
2023-02-27T10:27:27.638Z,4.33
2023-02-27T10:30:59.300Z,4.33
2023-02-27T10:34:30.750Z,4.34
2023-02-27T10:37:59.971Z,4.35
2023-02-27T10:41:29.425Z,4.33
2023-02-27T10:45:01.928Z,4.30
2023-02-27T10:48:31.374Z,4.28
2023-02-27T10:52:03.313Z,4.23
2023-02-27T10:55:32.550Z,4.18
2023-02-27T10:59:01.500Z,4.13
2023-02-27T11:02:36.865Z,4.09
2023-02-27T11:06:08.995Z,4.06
2023-02-27T11:09:36.783Z,4.02
2023-02-27T11:13:15.146Z,3.96
2023-02-27T11:16:47.539Z,3.92
2023-02-27T11:20:07.230Z,3.87
2023-02-27T11:23:47.750Z,3.81
2023-02-27T11:27:16.485Z,3.77
2023-02-27T11:30:44.551Z,3.73
2023-02-27T11:34:13.345Z,3.67
2023-02-27T11:37:42.726Z,3.60
2023-02-27T11:41:14.344Z,3.55
2023-02-27T11:44:50.737Z,3.51
2023-02-27T11:48:13.472Z,3.46
2023-02-27T11:51:42.486Z,3.41
2023-02-27T11:55:23.147Z,3.36
2023-02-27T11:58:39.881Z,3.34
2023-02-27T12:02:14.441Z,3.33
2023-02-27T12:06:01.862Z,3.32
2023-02-27T12:09:43.767Z,3.30
2023-02-27T12:13:18.664Z,3.27
2023-02-27T12:16:47.855Z,3.24
2023-02-27T12:20:44.224Z,3.23
2023-02-27T12:24:34.451Z,3.18
2023-02-27T12:28:06.040Z,3.10
2023-02-27T12:31:56.550Z,3.01
2023-02-27T12:35:28.550Z,2.91
2023-02-27T12:38:57.538Z,2.84
2023-02-27T12:42:35.533Z,2.83
2023-02-27T12:46:05.668Z,2.80
2023-02-27T12:49:36.188Z,2.77
2023-02-27T12:53:03.384Z,2.75
2023-02-27T12:56:25.946Z,2.74
2023-02-27T12:59:52.044Z,2.72
2023-02-27T13:03:30.762Z,2.72
2023-02-27T13:07:00.024Z,2.72
2023-02-27T13:10:35.608Z,2.70
2023-02-27T13:14:07.778Z,2.66
2023-02-27T13:17:43.065Z,2.62
2023-02-27T13:21:27.714Z,2.59
2023-02-27T13:25:00.141Z,2.58
2023-02-27T13:28:41.653Z,2.55
2023-02-27T13:32:41.273Z,2.51
2023-02-27T13:36:37.686Z,2.49
2023-02-27T13:40:21.912Z,2.47
2023-02-27T13:44:08.975Z,2.43
2023-02-27T13:47:38.030Z,2.40
2023-02-27T13:51:07.249Z,2.40
2023-02-27T13:54:36.688Z,2.38
2023-02-27T13:57:57.773Z,2.37
2023-02-27T14:01:27.051Z,2.37
2023-02-27T14:04:48.133Z,2.36
2023-02-27T14:08:17.147Z,2.34
2023-02-27T14:12:04.702Z,2.34
2023-02-27T14:15:31.513Z,2.33
2023-02-27T14:18:59.100Z,2.29
2023-02-27T14:22:35.961Z,2.27
2023-02-27T14:26:02.592Z,2.28
2023-02-27T14:29:37.844Z,2.28
2023-02-27T14:33:08.166Z,2.27
2023-02-27T14:36:40.281Z,2.27
2023-02-27T14:40:42.581Z,2.25
2023-02-27T14:44:20.111Z,2.24
2023-02-27T14:47:49.418Z,2.23
2023-02-27T14:51:24.864Z,2.21
2023-02-27T14:54:51.097Z,2.21
2023-02-27T14:57:58.126Z,2.24
2023-02-27T15:01:38.726Z,2.28
2023-02-27T15:05:10.105Z,2.32
2023-02-27T15:08:38.816Z,2.37
2023-02-27T15:12:06.757Z,2.42
2023-02-27T15:15:35.601Z,2.45
2023-02-27T15:19:04.501Z,2.51
2023-02-27T15:22:39.403Z,2.56
2023-02-27T15:26:01.800Z,2.61
2023-02-27T15:29:30.487Z,2.65
2023-02-27T15:32:59.124Z,2.72
2023-02-27T15:36:27.922Z,2.78
2023-02-27T15:40:08.603Z,2.82
2023-02-27T15:43:37.570Z,2.85
2023-02-27T15:47:06.285Z,2.90
2023-02-27T15:50:38.336Z,2.94
2023-02-27T15:54:10.390Z,3.00
2023-02-27T15:57:39.194Z,3.05
2023-02-27T16:01:01.673Z,3.11
2023-02-27T16:04:30.847Z,3.15
2023-02-27T16:07:42.183Z,3.19
2023-02-27T16:11:11.833Z,3.20
2023-02-27T16:14:40.625Z,3.21
2023-02-27T16:17:57.747Z,3.26
2023-02-27T16:21:29.388Z,3.31
2023-02-27T16:25:01.210Z,3.38
2023-02-27T16:28:29.953Z,3.41
2023-02-27T16:32:14.687Z,3.42
2023-02-27T16:35:44.332Z,3.45
2023-02-27T16:38:56.144Z,3.48
2023-02-27T16:42:25.096Z,3.51
2023-02-27T16:45:57.354Z,3.54
2023-02-27T16:49:19.077Z,3.59
2023-02-27T16:52:48.575Z,3.64
2023-02-27T16:56:21.390Z,3.69
2023-02-27T16:59:52.443Z,3.73
2023-02-27T17:03:21.226Z,3.77
2023-02-27T17:06:50.135Z,3.80
2023-02-27T17:10:19.181Z,3.82
2023-02-27T17:13:50.519Z,3.85
2023-02-27T17:17:20.041Z,3.86
2023-02-27T17:20:49.109Z,3.88
2023-02-27T17:24:20.470Z,3.89
2023-02-27T17:27:49.159Z,3.91
2023-02-27T17:31:17.895Z,3.93
2023-02-27T17:34:46.720Z,3.94
2023-02-27T17:38:15.476Z,3.96
2023-02-27T17:41:49.783Z,3.94
2023-02-27T17:45:18.420Z,3.93
2023-02-27T17:48:48.125Z,3.93
2023-02-27T17:52:16.905Z,3.95
2023-02-27T17:55:45.640Z,3.97
2023-02-27T17:59:14.347Z,4.01
2023-02-27T18:02:34.472Z,4.04
2023-02-27T18:06:03.292Z,4.05
2023-02-27T18:09:25.299Z,4.09
2023-02-27T18:12:54.596Z,4.13
2023-02-27T18:16:23.728Z,4.17
2023-02-27T18:19:46.144Z,4.19
2023-02-27T18:23:16.731Z,4.20
2023-02-27T18:26:46.055Z,4.18
2023-02-27T18:30:15.230Z,4.17
2023-02-27T18:33:37.410Z,4.21
2023-02-27T18:37:06.448Z,4.27
2023-02-27T18:40:35.513Z,4.32
2023-02-27T18:44:04.526Z,4.40
2023-02-27T18:47:33.812Z,4.48
2023-02-27T18:51:03.290Z,4.55
2023-02-27T18:54:13.012Z,4.64
2023-02-27T18:57:42.085Z,4.71
2023-02-27T19:01:11.515Z,4.78
2023-02-27T19:04:41.081Z,4.86
2023-02-27T19:08:01.085Z,4.93
2023-02-27T19:11:30.284Z,5.01
2023-02-27T19:14:58.990Z,5.09
2023-02-27T19:18:28.120Z,5.16
2023-02-27T19:21:57.247Z,5.25
2023-02-27T19:25:25.937Z,5.33
2023-02-27T19:28:54.729Z,5.41
2023-02-27T19:32:23.438Z,5.47
2023-02-27T19:35:51.592Z,5.53
2023-02-27T19:39:20.873Z,5.58
2023-02-27T19:42:50.234Z,5.65
2023-02-27T19:46:19.569Z,5.71
2023-02-27T19:49:48.471Z,5.73
2023-02-27T19:53:17.705Z,5.76
2023-02-27T19:56:49.643Z,5.80
2023-02-27T20:00:18.688Z,5.84
2023-02-27T20:03:47.933Z,5.90
2023-02-27T20:07:17.160Z,5.94
2023-02-27T20:10:39.174Z,6.01
2023-02-27T20:14:08.213Z,6.05
2023-02-27T20:17:37.324Z,6.06
2023-02-27T20:24:49.033Z,6.10
2023-02-27T20:28:18.223Z,6.12
2023-02-27T20:31:50.598Z,6.13
2023-02-27T20:35:20.467Z,6.10
2023-02-27T20:38:39.986Z,6.03
2023-02-27T20:42:08.922Z,5.96
2023-02-27T20:45:28.488Z,5.90
2023-02-27T20:48:58.003Z,5.85
2023-02-27T20:52:20.797Z,5.83
2023-02-27T20:55:50.147Z,5.80
2023-02-27T20:59:19.450Z,5.75
2023-02-27T21:02:49.317Z,5.70
2023-02-27T21:06:18.567Z,5.63
2023-02-27T21:09:46.526Z,5.60
2023-02-27T21:13:15.674Z,5.56
2023-02-27T21:16:11.038Z,5.53
2023-02-27T21:19:40.359Z,5.48
2023-02-27T21:22:52.355Z,5.43
2023-02-27T21:26:24.423Z,5.37
2023-02-27T21:29:56.945Z,5.28
2023-02-27T21:33:26.119Z,5.18
2023-02-27T21:36:53.969Z,5.13
2023-02-27T21:40:23.442Z,5.10
2023-02-27T21:43:52.584Z,5.08
2023-02-27T21:47:21.262Z,5.08
2023-02-27T21:50:50.225Z,5.06
2023-02-27T21:54:08.312Z,5.04
2023-02-27T21:57:27.144Z,5.03
2023-02-27T22:00:56.389Z,5.00
2023-02-27T22:04:25.889Z,4.95
2023-02-27T22:07:40.675Z,4.88
2023-02-27T22:11:02.841Z,4.82
2023-02-27T22:14:22.563Z,4.79
2023-02-27T22:17:51.947Z,4.77
2023-02-27T22:21:21.390Z,4.76
2023-02-27T22:24:50.659Z,4.77
2023-02-27T22:28:12.080Z,4.79
2023-02-27T22:31:47.934Z,4.82
2023-02-27T22:35:17.210Z,4.87
2023-02-27T22:38:46.134Z,4.90
2023-02-27T22:42:15.279Z,4.93
2023-02-27T22:45:44.522Z,4.96
2023-02-27T22:49:13.878Z,4.96
2023-02-27T22:52:43.490Z,4.98
2023-02-27T22:55:55.691Z,4.98
2023-02-27T22:59:25.803Z,5.01
2023-02-27T23:02:55.223Z,5.04
2023-02-27T23:06:27.721Z,5.06
2023-02-27T23:09:59.724Z,5.10
2023-02-27T23:13:29.209Z,5.14
2023-02-27T23:16:51.644Z,5.20
2023-02-27T23:20:13.374Z,5.25
2023-02-27T23:23:42.076Z,5.29
2023-02-27T23:27:25.130Z,5.34
2023-02-27T23:30:54.912Z,5.41
2023-02-27T23:34:24.141Z,5.49
2023-02-27T23:37:53.478Z,5.56
2023-02-27T23:41:22.532Z,5.58
2023-02-27T23:44:49.787Z,5.57
2023-02-27T23:48:18.844Z,5.56
2023-02-27T23:51:40.363Z,5.54
2023-02-27T23:55:00.287Z,5.54
2023-02-27T23:58:29.617Z,5.54
